Wednesday, May 4, 2016, 11:26 AM EDT

KFDK, Frederick, Frederick Municipal Airport

Location: Frederick, MD, United States Lat: 39.417
Local Time: 11:26 AM EDT (15:26 GMT) Lon: -77.374
Time Zone: US/Eastern Elev: 301 ft

Show me the last for .
Show Decoded

2016-05-04 10:50 METAR KFDK 041450Z 00000KT 2SM BR BKN007 OVC011 12/12 A2976 =
2016-05-04 09:55 METAR KFDK 041355Z VRB03KT 4SM BR OVC009 12/12 A2976 =
2016-05-04 07:50 METAR KFDK 041150Z 10004KT 4SM BR OVC007 12/12 A2977 =
2016-05-04 06:47 METAR KFDK 041047Z 110/03KT 5 BR OVC007 12/12 A2976 =
2016-05-04 06:15 METAR KFDK 041015Z AUTO 11003KT 3SM BR SCT005 BKN011 OVC019 12/12 A2976 RMK AO2
                 =
2016-05-04 06:05 METAR KFDK 041005Z AUTO 12004KT 2 1/2SM -DZ OVC009 12/12 A2976 RMK AO2 LTG DSNT
                 SE =
2016-05-04 05:45 METAR KFDK 040945Z AUTO 12004KT 2SM DZ OVC007 12/12 A2976 RMK AO2 P0001 =
2016-05-04 05:25 METAR KFDK 040925Z AUTO 15004KT 3SM RA OVC009 12/12 A2977 RMK AO2 =
2016-05-04 05:05 METAR KFDK 040905Z AUTO 00000KT 7SM OVC011 12/12 A2977 RMK AO2 LTG DSNT SE =
2016-05-04 04:45 METAR KFDK 040845Z AUTO 00000KT 5SM BR OVC011 12/12 A2976 RMK AO2 =
2016-05-04 04:25 METAR KFDK 040825Z AUTO 20003KT 4SM BR OVC008 12/12 A2977 RMK AO2 LTG DSNT SE =
2016-05-04 04:05 METAR KFDK 040805Z AUTO 00000KT 5SM BR OVC008 12/12 A2975 RMK AO2 LTG DSNT E =
2016-05-04 03:45 METAR KFDK 040745Z AUTO 00000KT 5SM BR OVC010 12/12 A2977 RMK AO2 =
2016-05-04 03:25 METAR KFDK 040725Z AUTO 00000KT 4SM BR OVC010 12/12 A2976 RMK AO2 =
2016-05-04 03:05 METAR KFDK 040705Z AUTO 00000KT 5SM BR OVC010 12/12 A2977 RMK AO2 =
2016-05-04 02:45 METAR KFDK 040645Z AUTO 00000KT 5SM BR OVC008 13/13 A2978 RMK AO2 LTG DSNT E
                 P0001 =
2016-05-04 02:25 METAR KFDK 040625Z AUTO 00000KT 4SM -RA OVC008 13/13 A2978 RMK AO2 P0001 =
2016-05-04 02:05 METAR KFDK 040605Z AUTO 00000KT 3SM DZ BKN010 BKN023 OVC055 13/13 A2979 RMK AO2
                 LTG DSNT SE =
2016-05-04 01:45 METAR KFDK 040545Z AUTO 00000KT 4SM DZ BKN010 OVC023 13/13 A2980 RMK AO2 LTG
                 DSNT SE =
2016-05-04 01:25 METAR KFDK 040525Z AUTO 00000KT 4SM -RA SCT010 OVC025 13/13 A2980 RMK AO2 LTG
                 DSNT SE AND W =
2016-05-04 01:05 METAR KFDK 040505Z AUTO 00000KT 5SM BR SCT008 OVC027 13/13 A2980 RMK AO2 LTG
                 DSNT SE =
2016-05-04 00:45 METAR KFDK 040445Z AUTO 00000KT 5SM -DZ SCT027 OVC060 13/13 A2980 RMK AO2 P0003
                 =
2016-05-04 00:25 METAR KFDK 040425Z AUTO 14005KT 5SM -RA SCT012 BKN060 OVC080 13/13 A2980 RMK AO2
                 LTG DSNT SE P0003 =
2016-05-04 00:05 METAR KFDK 040405Z AUTO 00000KT 3SM RA SCT009 SCT028 OVC080 13/13 A2980 RMK AO2
                 LTG DSNT SE P0001 =
2016-05-03 23:45 METAR KFDK 040345Z AUTO 00000KT 3SM RA SCT009 OVC055 13/13 A2981 RMK AO2 P0004 =
2016-05-03 23:25 METAR KFDK 040325Z AUTO 00000KT 5SM RA BKN065 OVC080 14/14 A2981 RMK AO2 LTG
                 DSNT E P0001 =
2016-05-03 23:05 METAR KFDK 040305Z AUTO 00000KT 5SM RA SCT075 OVC080 14/14 A2981 RMK AO2 P0001 =
2016-05-03 22:45 METAR KFDK 040245Z AUTO 00000KT 3SM RA SCT015 SCT050 OVC075 14/14 A2981 RMK AO2
                 P0016 =
2016-05-03 22:25 METAR KFDK 040225Z AUTO 00000KT 2SM RA SCT011 BKN048 OVC065 15/15 A2982 RMK AO2
                 P0011 =
2016-05-03 22:05 METAR KFDK 040205Z AUTO 05004KT 2SM +RA SCT008 SCT026 OVC044 15/15 A2982 RMK AO2
                 LTG DSNT SW P0003 =
2016-05-03 21:45 METAR KFDK 040145Z AUTO 01004KT 4SM -RA SCT026 OVC042 15/15 A2982 RMK AO2 LTG
                 DSNT W P0001 =
2016-05-03 21:25 METAR KFDK 040125Z AUTO 36003KT 5SM -RA SCT029 BKN040 OVC080 15/15 A2981 RMK AO2
                 LTG DSNT SE AND W P0001 =
2016-05-03 21:05 METAR KFDK 040105Z AUTO 02004KT 7SM DZ SCT027 OVC038 15/15 A2981 RMK AO2 P0001 =
2016-05-03 20:45 METAR KFDK 040045Z AUTO 02003KT 7SM DZ SCT023 BKN038 OVC080 15/15 A2981 RMK AO2
                 =
2016-05-03 20:25 METAR KFDK 040025Z AUTO 36003KT 10SM SCT021 BKN065 OVC090 15/15 A2980 RMK AO2 =
2016-05-03 19:46 METAR KFDK 032346Z VRB04KT 7SM SCT070 BKN120 16/15 A2978 =
2016-05-03 18:50 METAR KFDK 032250Z 07003KT 10SM SCT020 BKN080 18/15 A2978 =
2016-05-03 17:50 METAR KFDK 032150Z 11007KT 7SM VCTS-RA BKN055 BKN075 OVC100 18/14 A2977 =
2016-05-03 16:50 METAR KFDK 032050Z 11005KT 10SM FEW028 BKN060 20/15 A2977 =
2016-05-03 15:48 METAR KFDK 031948Z 05007KT 10SM BKN028 BKN033 19/15 A2977 =
2016-05-03 14:48 METAR KFDK 031848Z 02004KT 10SM SCT055 SCT110 19/16 A2979 =
2016-05-03 13:50 METAR KFDK 031750Z 04005KT 10SM SCT018 BKN035 BKN045 18/15 A2982 =
2016-05-03 12:50 METAR KFDK 031650Z 04006KT 10SM OVC014 17/15 A2984 =
2016-05-03 11:53 METAR KFDK 031553Z 05009KT 7SM BKN010 OVC014 16/14 A2984 =

Support USWX by starting your Amazon purchase here.